Aruba, Aruba

10:21 AM AST op 28 juli 2014 (GMT -0400)
Oranjestad-Reina Beatrix International (TNCA) Hoogte 59 ft | 12.50 °N, 70.02 °W | Change Station

Current weather conditions updated 21 minutes ago

Mostly Cloudy
Merendeels bewolkt
86 °F
Voelt als 97 °F
N
18
Wind Variabel Wind van oost

Er wordt verwacht dat de temperatuur vandaag bijna hetzelfde is als gisteren.

Vandaag
Hoog -- | Laag -- °F
--% Kans op neerslag
Gisteren
Hoog -- | Laag -- °F
Precip. -- inches
6:25 AM 7:07 PM
Nieuwe maan, 2% visible
Druk 30.01 inches
Zicht 6.2 mijlen
Wolken Merendeels bewolkt 2000 ft
Warmteindex 97 °F
Dauwpunt 77 °F
Vochtigheid 74%
Neerslag 0.00 inches
Dikte sneeuw Niet beschikbaar.
UV 6 van de 12
Pollen Niet beschikbaar.
Luchtkwaliteit Niet beschikbaar.
Flu Activity Niet beschikbaar.
METAR TNCA 281400Z 10016KT 070V130 9999 BKN020 30/25 Q1016 A3000 NOSIG

More Conditions Fewer Conditions

Druk 30.01 inches
Zicht 6.2 mijlen
Wolken Merendeels bewolkt 2000 ft
Warmteindex 97 °F
Dauwpunt 77 °F
Vochtigheid 74%
Neerslag 0.00 inches
Dikte sneeuw Niet beschikbaar.
UV 6 van de 12
Pollen Niet beschikbaar.
Luchtkwaliteit Niet beschikbaar.
Flu Activity Niet beschikbaar.
METAR TNCA 281400Z 10016KT 070V130 9999 BKN020 30/25 Q1016 A3000 NOSIG

More Conditions Fewer Conditions

10-Day Weather Forecast

Almanac

Astronomie

Jul. 28, 2014 Opkomst Ondergang
Werkelijke tijd 6:25 AM AST 7:07 PM AST
Burgerlijke schemering 6:02 AM AST 7:30 PM AST
Nautische schemering 5:36 AM AST 7:56 PM AST
Astronomische schemering 5:09 AM AST 8:23 PM AST
Maan 7:39 AM AST 8:16 PM AST
Golflengte van het zichtbare licht 13h 27m
Daglengte
12h 42m
Tomorrow will be 0m 29s shorter.
Nieuwe maan, 2% of the Moon is Illuminated
Vandaag
Nieuwe maan
aug 3
Eerste kwartier
aug 10
Volle maan
aug 17
Laatste kwartier
aug 25
Nieuw

Extremen gisteren

Country Highs Country Lows

Community

WunderPhotos

Upload Photos

1,738,337 foto’s ge-upload!

Nearby

Luchtkwaliteit

Not available.

Dikte sneeuw

Not available.

Aardbevingen

Stad Distance Mag. Time & Date
No recent earthquake activity has been reported nearby.
Minimum magnitude displayed is 2.5.

Watertemperatuur langs de kust

Plaats Temperatuur
Geen meldingen van stations

Nabije weerstations

Geen persoonlijke weerstations in dit gebied.